createdAt,value
2018-10-17T00:00:22.914Z,57.77
2018-10-17T00:03:21.089Z,58.17
2018-10-17T00:05:53.642Z,56.53
2018-10-17T00:08:23.463Z,52.00
2018-10-17T00:10:53.249Z,56.90
2018-10-17T00:13:22.356Z,53.78
2018-10-17T00:15:51.717Z,53.97
2018-10-17T00:18:20.842Z,47.60
2018-10-17T00:20:51.054Z,46.93
2018-10-17T00:23:20.550Z,56.43
2018-10-17T00:25:52.177Z,53.17
2018-10-17T00:28:21.535Z,51.37
2018-10-17T00:30:51.143Z,52.57
2018-10-17T00:33:28.294Z,54.10
2018-10-17T00:35:58.492Z,50.83
2018-10-17T00:38:28.092Z,57.10
2018-10-17T00:40:57.767Z,56.23
2018-10-17T00:43:57.034Z,64.53
2018-10-17T00:46:32.213Z,58.27
2018-10-17T00:49:07.280Z,58.67
2018-10-17T00:54:13.325Z,60.78
2018-10-17T00:56:42.767Z,64.47
2018-10-17T00:59:13.487Z,62.07
2018-10-17T01:01:42.557Z,64.37
2018-10-17T01:04:12.125Z,59.30
2018-10-17T01:06:41.422Z,62.80
2018-10-17T01:09:12.827Z,56.40
2018-10-17T01:11:42.314Z,53.17
2018-10-17T01:14:35.778Z,53.90
2018-10-17T01:17:43.240Z,61.00
2018-10-17T01:20:12.758Z,53.37
2018-10-17T01:25:52.042Z,51.97
2018-10-17T01:28:21.961Z,60.63
2018-10-17T01:30:51.628Z,53.60
2018-10-17T01:33:20.759Z,53.70
2018-10-17T01:35:50.807Z,62.30
2018-10-17T01:38:19.949Z,58.97
2018-10-17T01:40:49.037Z,61.67
2018-10-17T01:43:18.636Z,62.90
2018-10-17T01:45:48.178Z,59.20
2018-10-17T01:48:17.547Z,62.00
2018-10-17T01:52:33.017Z,62.43
2018-10-17T01:55:03.095Z,63.13
2018-10-17T01:57:32.580Z,57.73
2018-10-17T02:00:01.815Z,64.53
2018-10-17T02:02:31.317Z,67.13
2018-10-17T02:05:00.564Z,74.20
2018-10-17T02:07:29.753Z,63.70
2018-10-17T02:09:58.901Z,66.77
2018-10-17T02:12:43.279Z,76.13
2018-10-17T02:15:13.153Z,74.63
2018-10-17T02:17:43.883Z,65.30
2018-10-17T02:23:24.782Z,78.62
2018-10-17T02:25:53.834Z,84.70
2018-10-17T02:28:22.944Z,76.33
2018-10-17T02:30:52.350Z,81.10
2018-10-17T02:33:21.501Z,87.53
2018-10-17T02:35:50.963Z,74.23
2018-10-17T02:38:20.155Z,70.67
2018-10-17T02:40:49.509Z,76.80
2018-10-17T02:43:18.759Z,80.50
2018-10-17T02:45:48.243Z,78.43
2018-10-17T02:48:17.274Z,75.90
2018-10-17T02:50:47.290Z,80.53
2018-10-17T02:53:55.403Z,69.97
2018-10-17T02:56:27.831Z,76.13
2018-10-17T02:59:05.125Z,80.97
2018-10-17T03:01:34.410Z,68.97
2018-10-17T03:04:03.801Z,73.30
2018-10-17T03:06:33.228Z,68.97
2018-10-17T03:09:03.390Z,67.50
2018-10-17T03:11:32.575Z,69.37
2018-10-17T03:14:21.838Z,73.20
2018-10-17T03:17:51.775Z,61.50
2018-10-17T03:20:56.570Z,67.63
2018-10-17T03:23:26.102Z,70.03
2018-10-17T03:26:43.546Z,75.70
2018-10-17T03:29:12.792Z,62.27
2018-10-17T03:31:42.339Z,69.90
2018-10-17T03:34:25.950Z,64.50
2018-10-17T03:36:55.451Z,68.20
2018-10-17T03:39:26.804Z,65.27
2018-10-17T03:41:56.452Z,63.20
2018-10-17T03:44:26.245Z,63.93
2018-10-17T03:46:56.762Z,61.43
2018-10-17T03:49:26.132Z,56.93
2018-10-17T03:51:55.153Z,48.20
2018-10-17T03:54:24.189Z,57.97
2018-10-17T03:56:53.286Z,60.07
2018-10-17T03:59:57.653Z,53.97
2018-10-17T04:02:26.803Z,56.37
2018-10-17T04:04:55.887Z,55.90
2018-10-17T04:07:25.971Z,66.70
2018-10-17T04:10:32.651Z,56.40
2018-10-17T04:13:03.571Z,55.23
2018-10-17T04:15:32.898Z,57.53
2018-10-17T04:18:33.034Z,61.83
2018-10-17T04:24:11.664Z,60.97
2018-10-17T04:26:40.732Z,66.33
2018-10-17T04:29:10.696Z,65.70
2018-10-17T04:32:04.198Z,56.83
2018-10-17T04:34:33.385Z,61.03
2018-10-17T04:37:02.486Z,54.80
2018-10-17T04:39:31.556Z,59.70
2018-10-17T04:42:00.622Z,62.77
2018-10-17T04:44:29.737Z,68.53
2018-10-17T04:46:58.929Z,62.00
2018-10-17T04:49:28.031Z,62.60
2018-10-17T04:51:57.160Z,58.30
2018-10-17T04:54:57.624Z,62.27
2018-10-17T04:57:26.854Z,57.83
2018-10-17T04:59:56.131Z,63.60
2018-10-17T05:02:25.633Z,66.40
2018-10-17T05:04:54.708Z,76.27
2018-10-17T05:07:47.794Z,65.40
2018-10-17T05:10:16.884Z,77.87
2018-10-17T05:12:46.011Z,75.73
2018-10-17T05:15:15.215Z,70.87
2018-10-17T05:17:44.298Z,71.63
2018-10-17T05:20:13.549Z,79.73
2018-10-17T05:25:38.169Z,82.77
2018-10-17T05:28:07.390Z,66.17
2018-10-17T05:30:36.871Z,74.17
2018-10-17T05:33:06.517Z,72.53
2018-10-17T05:35:35.703Z,78.80
2018-10-17T05:38:08.875Z,69.67
2018-10-17T05:40:38.163Z,74.33
2018-10-17T05:43:07.415Z,76.67
2018-10-17T05:45:36.590Z,76.60
2018-10-17T05:48:18.684Z,71.07
2018-10-17T05:51:16.915Z,69.70
2018-10-17T05:53:48.011Z,69.33
2018-10-17T05:56:18.899Z,67.80
2018-10-17T05:58:47.967Z,70.23
2018-10-17T06:01:22.946Z,72.47
2018-10-17T06:03:52.133Z,78.93
2018-10-17T06:09:02.317Z,71.10
2018-10-17T06:11:50.896Z,67.70
2018-10-17T06:14:20.412Z,68.57
2018-10-17T06:16:49.593Z,70.57
2018-10-17T06:19:18.627Z,71.13
2018-10-17T06:21:47.904Z,77.13
2018-10-17T06:24:17.556Z,72.13
2018-10-17T06:26:46.796Z,76.27
2018-10-17T06:29:15.952Z,76.47
2018-10-17T06:31:45.124Z,70.17
2018-10-17T06:34:14.259Z,69.63
2018-10-17T06:36:43.291Z,78.93
2018-10-17T06:39:35.423Z,68.03
2018-10-17T06:45:15.038Z,71.73
2018-10-17T06:47:44.148Z,74.07
2018-10-17T06:50:27.526Z,80.53
2018-10-17T06:52:56.675Z,74.17
2018-10-17T06:55:25.980Z,67.80
2018-10-17T07:11:41.063Z,82.90
2018-10-17T07:14:10.960Z,76.50
2018-10-17T07:16:40.132Z,58.20
2018-10-17T07:19:32.640Z,59.33
2018-10-17T07:25:32.093Z,64.90
2018-10-17T07:28:07.868Z,58.00
2018-10-17T07:30:51.730Z,60.03
2018-10-17T07:33:20.929Z,55.63
2018-10-17T07:35:53.649Z,56.03
2018-10-17T07:38:24.482Z,58.57
2018-10-17T07:43:49.418Z,58.80
2018-10-17T07:46:27.280Z,52.73
2018-10-17T07:51:57.946Z,46.63
2018-10-17T07:54:27.904Z,55.27
2018-10-17T08:02:51.163Z,49.87
2018-10-17T08:06:07.060Z,46.27
2018-10-17T08:12:38.559Z,49.20
2018-10-17T08:15:08.802Z,47.03
2018-10-17T08:17:38.719Z,48.77
2018-10-17T08:20:12.400Z,42.93
2018-10-17T08:22:44.936Z,47.27
2018-10-17T08:25:17.569Z,41.63
2018-10-17T08:28:01.631Z,42.33
2018-10-17T08:30:31.438Z,44.27
2018-10-17T08:33:05.757Z,39.20
2018-10-17T08:35:36.047Z,39.57
2018-10-17T08:38:05.381Z,36.07
2018-10-17T08:40:41.536Z,40.00
2018-10-17T08:43:33.154Z,35.17
2018-10-17T08:46:02.492Z,35.80
2018-10-17T08:48:33.687Z,37.93
2018-10-17T08:51:04.737Z,38.70
2018-10-17T09:03:18.777Z,44.33
2018-10-17T09:14:56.469Z,35.93
2018-10-17T09:23:28.745Z,42.83
2018-10-17T09:25:58.217Z,43.20
2018-10-17T09:28:27.537Z,53.50
2018-10-17T09:30:56.876Z,42.67
2018-10-17T09:33:26.339Z,48.37
2018-10-17T09:35:55.518Z,48.67
2018-10-17T09:38:25.151Z,44.60
2018-10-17T09:41:12.141Z,44.23
2018-10-17T09:43:41.472Z,37.43
2018-10-17T09:46:10.756Z,43.67
2018-10-17T09:48:40.045Z,44.63
2018-10-17T09:51:13.597Z,45.13
2018-10-17T09:53:42.843Z,37.93
2018-10-17T09:56:12.753Z,35.10
2018-10-17T09:58:41.963Z,37.60
2018-10-17T10:01:20.399Z,39.00
2018-10-17T10:06:49.552Z,35.17
2018-10-17T10:09:18.757Z,40.77
2018-10-17T10:11:48.055Z,30.37
2018-10-17T10:14:17.543Z,35.07
2018-10-17T10:16:50.044Z,29.53
2018-10-17T10:19:19.297Z,33.13
2018-10-17T10:21:49.251Z,29.83
2018-10-17T10:24:19.810Z,35.83
2018-10-17T10:26:49.091Z,36.03
2018-10-17T10:29:18.397Z,32.93
2018-10-17T10:31:47.941Z,24.40
2018-10-17T10:34:17.727Z,39.10
2018-10-17T10:36:46.949Z,25.03
2018-10-17T10:39:16.276Z,26.30
2018-10-17T10:41:45.369Z,24.07
2018-10-17T10:44:14.528Z,26.23
2018-10-17T10:46:43.902Z,26.73
2018-10-17T10:49:13.069Z,29.47
2018-10-17T10:51:42.320Z,25.03
2018-10-17T10:54:11.547Z,24.63
2018-10-17T10:56:40.586Z,25.20
2018-10-17T10:59:10.229Z,27.53
2018-10-17T11:01:39.301Z,26.57
2018-10-17T11:04:08.803Z,29.00
2018-10-17T11:06:53.381Z,20.67
2018-10-17T11:09:22.581Z,20.67
2018-10-17T11:11:51.802Z,19.80
2018-10-17T11:14:21.470Z,19.70
2018-10-17T11:16:50.532Z,19.27
2018-10-17T11:19:19.713Z,20.40
2018-10-17T11:21:48.940Z,19.97
2018-10-17T11:24:17.951Z,19.20
2018-10-17T11:26:47.209Z,18.20
2018-10-17T11:29:16.423Z,16.97
2018-10-17T11:31:45.577Z,14.77
2018-10-17T11:34:14.871Z,13.20
2018-10-17T11:36:43.946Z,14.80
2018-10-17T11:39:13.336Z,13.53
2018-10-17T11:41:42.450Z,23.07
2018-10-17T11:44:11.524Z,17.27
2018-10-17T11:46:40.675Z,17.17
2018-10-17T11:49:09.837Z,15.47
2018-10-17T11:51:39.178Z,13.33
2018-10-17T11:54:08.400Z,19.23
2018-10-17T11:56:37.628Z,16.07
2018-10-17T11:59:07.413Z,15.43
2018-10-17T12:01:37.036Z,13.30
2018-10-17T12:04:06.944Z,15.67
2018-10-17T12:06:36.291Z,12.00
2018-10-17T12:09:08.662Z,12.50
2018-10-17T12:11:39.459Z,13.90
2018-10-17T12:14:09.030Z,12.87
2018-10-17T12:16:38.746Z,14.53
2018-10-17T12:19:08.315Z,16.67
2018-10-17T12:21:37.860Z,25.27
2018-10-17T12:24:07.284Z,13.90
2018-10-17T12:26:37.264Z,18.43
2018-10-17T12:32:07.173Z,18.00
2018-10-17T12:34:46.923Z,13.90
2018-10-17T12:38:10.441Z,15.43
2018-10-17T12:41:05.646Z,17.57
2018-10-17T12:43:34.628Z,14.97
2018-10-17T12:46:04.133Z,15.30
2018-10-17T12:48:55.554Z,12.90
2018-10-17T12:51:24.919Z,10.83
2018-10-17T12:53:54.106Z,12.60
2018-10-17T12:56:23.364Z,16.80
2018-10-17T12:58:52.588Z,18.20
2018-10-17T13:01:21.587Z,17.33
2018-10-17T13:06:46.543Z,15.93
2018-10-17T13:09:37.690Z,19.70
2018-10-17T13:12:07.104Z,13.47
2018-10-17T13:14:36.151Z,13.13
2018-10-17T13:19:52.041Z,23.93
2018-10-17T13:22:21.300Z,19.13
2018-10-17T13:24:50.366Z,16.70
2018-10-17T13:27:19.822Z,20.50
2018-10-17T13:29:51.904Z,12.97
2018-10-17T13:32:34.022Z,15.90
2018-10-17T13:35:09.715Z,16.10
2018-10-17T13:37:45.458Z,13.60
2018-10-17T13:40:15.322Z,19.00
2018-10-17T13:42:51.343Z,15.30
2018-10-17T13:45:21.086Z,13.90
2018-10-17T13:47:50.483Z,12.87
2018-10-17T13:50:19.746Z,14.27
2018-10-17T13:52:48.792Z,13.10
2018-10-17T13:55:18.189Z,13.90
2018-10-17T13:57:47.306Z,15.67
2018-10-17T14:00:16.515Z,12.93
2018-10-17T14:02:45.780Z,12.90
2018-10-17T14:05:15.209Z,13.53
2018-10-17T14:07:44.433Z,13.27
2018-10-17T14:10:13.498Z,11.90
2018-10-17T14:12:42.815Z,14.23
2018-10-17T14:15:12.026Z,21.53
2018-10-17T14:17:40.961Z,15.70
2018-10-17T14:20:10.297Z,11.10
2018-10-17T14:22:39.339Z,10.83
2018-10-17T14:25:08.519Z,15.57
2018-10-17T14:27:37.725Z,12.77
2018-10-17T14:30:08.110Z,9.43
2018-10-17T14:32:37.614Z,11.47
2018-10-17T14:35:10.365Z,10.30
2018-10-17T14:37:39.803Z,12.60
2018-10-17T14:40:09.027Z,20.73
2018-10-17T14:42:38.553Z,13.47
2018-10-17T14:45:10.292Z,14.90
2018-10-17T14:47:39.849Z,13.77
2018-10-17T14:50:08.994Z,19.10
2018-10-17T14:53:01.177Z,14.30
2018-10-17T14:55:30.532Z,12.83
2018-10-17T14:58:00.588Z,14.97
2018-10-17T15:00:35.241Z,10.23
2018-10-17T15:03:05.848Z,11.83
2018-10-17T15:08:41.100Z,12.87
2018-10-17T15:11:23.590Z,15.50
2018-10-17T15:13:53.005Z,12.77
2018-10-17T15:16:22.226Z,15.83
2018-10-17T15:18:53.161Z,12.17
2018-10-17T15:21:22.839Z,22.27
2018-10-17T15:23:51.898Z,23.57
2018-10-17T15:26:20.964Z,15.57
2018-10-17T15:28:52.243Z,15.63
2018-10-17T15:31:22.393Z,14.33
2018-10-17T15:33:51.565Z,17.00
2018-10-17T15:36:21.883Z,21.67
2018-10-17T15:38:51.148Z,23.57
2018-10-17T15:41:20.293Z,21.57
2018-10-17T15:43:50.464Z,28.67
2018-10-17T15:46:20.125Z,20.63
2018-10-17T15:48:49.400Z,24.87
2018-10-17T15:51:18.757Z,17.80
2018-10-17T15:53:47.955Z,14.83
2018-10-17T15:56:17.400Z,15.77
2018-10-17T15:58:46.624Z,18.43
2018-10-17T16:01:15.872Z,29.07
2018-10-17T16:03:45.130Z,19.33
2018-10-17T16:06:14.695Z,18.97
2018-10-17T16:08:43.852Z,26.00
2018-10-17T16:11:13.012Z,37.07
2018-10-17T16:13:42.566Z,30.40
2018-10-17T16:16:11.750Z,27.10
2018-10-17T16:18:41.717Z,22.50
2018-10-17T16:21:10.979Z,24.60
2018-10-17T16:23:40.077Z,21.63
2018-10-17T16:26:09.440Z,22.93
2018-10-17T16:28:38.551Z,24.80
2018-10-17T16:31:07.984Z,22.63
2018-10-17T16:33:37.092Z,25.63
2018-10-17T16:36:06.807Z,23.97
2018-10-17T16:38:35.943Z,27.60
2018-10-17T16:41:05.451Z,28.27
2018-10-17T16:43:34.607Z,21.80
2018-10-17T16:46:03.791Z,18.47
2018-10-17T16:48:33.197Z,19.10
2018-10-17T16:51:10.229Z,24.57
2018-10-17T16:53:39.719Z,24.43
2018-10-17T16:56:09.303Z,78.47
2018-10-17T16:58:38.681Z,21.80
2018-10-17T17:01:08.881Z,23.93
2018-10-17T17:03:37.991Z,25.47
2018-10-17T17:06:07.164Z,20.00
2018-10-17T17:08:36.725Z,28.87
2018-10-17T17:14:41.161Z,26.23
2018-10-17T17:17:10.571Z,26.53
2018-10-17T17:19:39.714Z,41.53
2018-10-17T17:23:27.121Z,24.60
2018-10-17T17:26:35.349Z,25.30
2018-10-17T17:29:29.753Z,23.97
2018-10-17T17:37:49.005Z,31.83
2018-10-17T17:40:18.463Z,37.40
2018-10-17T17:42:47.731Z,39.30
2018-10-17T17:45:17.181Z,44.40
2018-10-17T17:47:46.905Z,44.50
2018-10-17T17:50:16.061Z,46.13
2018-10-17T17:52:48.717Z,48.83
2018-10-17T17:55:18.026Z,61.53
2018-10-17T17:57:47.387Z,57.37
2018-10-17T18:00:16.808Z,51.90
2018-10-17T18:02:46.221Z,55.80
2018-10-17T18:05:15.621Z,58.87
2018-10-17T18:07:45.249Z,61.13
2018-10-17T18:10:14.769Z,65.53
2018-10-17T18:12:44.033Z,63.20
2018-10-17T18:15:13.344Z,72.93
2018-10-17T18:17:42.530Z,68.23
2018-10-17T18:20:11.919Z,62.30
2018-10-17T18:23:10.144Z,72.37
2018-10-17T18:26:28.890Z,75.80
2018-10-17T18:28:58.034Z,63.63
2018-10-17T18:32:19.433Z,74.60
2018-10-17T18:38:07.766Z,76.30
2018-10-17T18:40:38.293Z,76.87
2018-10-17T18:43:14.369Z,83.30
2018-10-17T18:45:43.702Z,75.67
2018-10-17T18:48:12.867Z,80.77
2018-10-17T18:50:43.314Z,89.47
2018-10-17T19:13:19.426Z,93.03
2018-10-17T19:15:48.665Z,100.20
2018-10-17T19:18:18.045Z,98.80
2018-10-17T19:20:49.056Z,103.93
2018-10-17T19:23:18.487Z,104.83
2018-10-17T19:26:36.756Z,94.43
2018-10-17T19:32:14.041Z,102.90
2018-10-17T19:34:43.215Z,109.77
2018-10-17T19:37:49.321Z,108.87
2018-10-17T19:40:19.400Z,105.10
2018-10-17T19:42:51.003Z,117.70
2018-10-17T19:45:20.810Z,112.73
2018-10-17T19:47:50.207Z,119.17
2018-10-17T19:50:20.426Z,111.93
2018-10-17T19:52:49.785Z,119.00
2018-10-17T19:55:20.110Z,113.87
2018-10-17T19:58:18.235Z,104.10
2018-10-17T20:00:53.387Z,110.33
2018-10-17T20:03:25.360Z,102.80
2018-10-17T20:06:34.151Z,124.97
2018-10-17T20:09:04.955Z,119.67
2018-10-17T20:11:51.767Z,125.63
2018-10-17T20:14:21.097Z,120.17
2018-10-17T20:51:30.036Z,141.43
2018-10-17T20:54:02.832Z,137.13
2018-10-17T20:56:32.100Z,134.50
2018-10-17T20:59:01.482Z,141.47
2018-10-17T21:15:21.600Z,152.55
2018-10-17T21:17:50.742Z,149.67
2018-10-17T21:20:19.931Z,171.10
2018-10-17T21:22:49.063Z,178.70
2018-10-17T21:25:18.307Z,166.67
2018-10-17T21:28:05.698Z,169.33
2018-10-17T21:30:34.909Z,175.90
2018-10-17T21:33:05.425Z,187.33
2018-10-17T21:35:34.529Z,175.20
2018-10-17T21:38:03.824Z,184.77
2018-10-17T21:40:33.215Z,185.17
2018-10-17T21:43:02.574Z,190.20
2018-10-17T21:45:32.275Z,187.07
2018-10-17T21:48:09.105Z,201.87
2018-10-17T21:50:38.367Z,177.60
2018-10-17T21:53:07.833Z,189.03
2018-10-17T21:55:38.452Z,190.27
2018-10-17T21:58:39.231Z,205.73
2018-10-17T22:01:08.887Z,175.57
2018-10-17T22:03:38.352Z,190.50
2018-10-17T22:06:14.544Z,171.90
2018-10-17T22:08:43.994Z,195.30
2018-10-17T22:11:13.305Z,185.23
2018-10-17T22:13:42.581Z,194.33
2018-10-17T22:16:12.516Z,192.83
2018-10-17T22:18:41.805Z,180.77
2018-10-17T22:21:11.162Z,182.10
2018-10-17T22:23:40.471Z,213.47
2018-10-17T22:27:02.416Z,170.70
2018-10-17T22:29:31.806Z,186.13
2018-10-17T22:32:01.303Z,176.93
2018-10-17T22:34:30.675Z,176.53
2018-10-17T22:36:59.857Z,177.10
2018-10-17T22:39:29.145Z,186.23
2018-10-17T22:41:58.491Z,195.23
2018-10-17T22:44:30.891Z,179.90
2018-10-17T22:47:01.005Z,193.83
2018-10-17T22:49:30.258Z,187.83
2018-10-17T22:51:59.602Z,187.47
2018-10-17T22:54:29.819Z,207.40
2018-10-17T22:56:59.231Z,198.73
2018-10-17T22:59:28.541Z,201.80
2018-10-17T23:01:58.862Z,199.07
2018-10-17T23:04:28.238Z,192.63
2018-10-17T23:07:24.679Z,184.80
2018-10-17T23:09:54.076Z,189.50
2018-10-17T23:12:23.535Z,193.20
2018-10-17T23:14:53.052Z,181.90
2018-10-17T23:20:40.992Z,170.23
2018-10-17T23:23:10.307Z,154.60
2018-10-17T23:25:39.489Z,163.00
2018-10-17T23:28:15.521Z,170.63
2018-10-17T23:30:44.805Z,165.47
2018-10-17T23:33:13.941Z,164.67
2018-10-17T23:35:43.233Z,162.53
2018-10-17T23:38:12.578Z,157.27
2018-10-17T23:40:41.951Z,134.87
2018-10-17T23:43:26.889Z,138.27
2018-10-17T23:45:56.249Z,139.43
2018-10-17T23:48:57.402Z,136.47
2018-10-17T23:51:26.834Z,143.03
2018-10-17T23:53:56.368Z,134.00
2018-10-17T23:56:25.846Z,142.70
2018-10-17T23:58:56.974Z,147.60
